sensor_id;sensor_type;location;lat;lon;timestamp;P1;durP1;ratioP1;P2;durP2;ratioP2
13733;SDS011;43298;52.560;13.508;2023-04-24T00:00:56;11.77;;;11.18;;
13733;SDS011;43298;52.560;13.508;2023-04-24T00:03:22;11.73;;;11.23;;
13733;SDS011;43298;52.560;13.508;2023-04-24T00:05:48;11.10;;;10.60;;
13733;SDS011;43298;52.560;13.508;2023-04-24T00:08:14;12.00;;;11.40;;
13733;SDS011;43298;52.560;13.508;2023-04-24T00:10:41;10.80;;;10.35;;
13733;SDS011;43298;52.560;13.508;2023-04-24T00:13:06;11.73;;;11.23;;
13733;SDS011;43298;52.560;13.508;2023-04-24T00:15:33;11.60;;;11.10;;
13733;SDS011;43298;52.560;13.508;2023-04-24T00:17:58;12.88;;;12.27;;
13733;SDS011;43298;52.560;13.508;2023-04-24T00:20:26;11.95;;;11.45;;
13733;SDS011;43298;52.560;13.508;2023-04-24T00:22:54;10.30;;;9.90;;
13733;SDS011;43298;52.560;13.508;2023-04-24T00:25:20;11.13;;;10.60;;
13733;SDS011;43298;52.560;13.508;2023-04-24T00:27:46;10.48;;;10.00;;
13733;SDS011;43298;52.560;13.508;2023-04-24T00:30:12;9.40;;;9.00;;
13733;SDS011;43298;52.560;13.508;2023-04-24T00:32:38;10.07;;;9.68;;
13733;SDS011;43298;52.560;13.508;2023-04-24T00:35:04;9.80;;;9.40;;
13733;SDS011;43298;52.560;13.508;2023-04-24T00:37:31;10.50;;;10.10;;
13733;SDS011;43298;52.560;13.508;2023-04-24T00:39:57;9.75;;;9.15;;
13733;SDS011;43298;52.560;13.508;2023-04-24T00:42:23;9.63;;;8.85;;
13733;SDS011;43298;52.560;13.508;2023-04-24T00:44:49;9.40;;;9.00;;
13733;SDS011;43298;52.560;13.508;2023-04-24T00:47:16;9.55;;;9.15;;
13733;SDS011;43298;52.560;13.508;2023-04-24T00:49:43;8.23;;;7.82;;
13733;SDS011;43298;52.560;13.508;2023-04-24T00:52:09;7.53;;;7.13;;
13733;SDS011;43298;52.560;13.508;2023-04-24T00:54:35;8.07;;;7.65;;
13733;SDS011;43298;52.560;13.508;2023-04-24T00:57:04;8.27;;;7.88;;
13733;SDS011;43298;52.560;13.508;2023-04-24T00:59:30;7.43;;;7.13;;
13733;SDS011;43298;52.560;13.508;2023-04-24T01:01:57;7.97;;;7.40;;
13733;SDS011;43298;52.560;13.508;2023-04-24T01:04:23;8.10;;;7.60;;
13733;SDS011;43298;52.560;13.508;2023-04-24T01:06:51;8.43;;;7.97;;
13733;SDS011;43298;52.560;13.508;2023-04-24T01:09:17;8.40;;;8.00;;
13733;SDS011;43298;52.560;13.508;2023-04-24T01:11:44;7.32;;;7.03;;
13733;SDS011;43298;52.560;13.508;2023-04-24T01:14:09;6.40;;;6.10;;
13733;SDS011;43298;52.560;13.508;2023-04-24T01:16:36;7.85;;;7.45;;
13733;SDS011;43298;52.560;13.508;2023-04-24T01:19:03;7.25;;;6.85;;
13733;SDS011;43298;52.560;13.508;2023-04-24T01:21:31;7.07;;;6.78;;
13733;SDS011;43298;52.560;13.508;2023-04-24T01:24:02;7.95;;;7.55;;
13733;SDS011;43298;52.560;13.508;2023-04-24T01:26:32;7.22;;;6.82;;
13733;SDS011;43298;52.560;13.508;2023-04-24T01:28:58;8.25;;;7.65;;
13733;SDS011;43298;52.560;13.508;2023-04-24T01:31:24;7.22;;;6.93;;
13733;SDS011;43298;52.560;13.508;2023-04-24T01:33:50;7.40;;;7.10;;
13733;SDS011;43298;52.560;13.508;2023-04-24T01:36:17;8.30;;;7.97;;
13733;SDS011;43298;52.560;13.508;2023-04-24T01:38:44;8.77;;;8.30;;
13733;SDS011;43298;52.560;13.508;2023-04-24T01:41:10;8.85;;;8.35;;
13733;SDS011;43298;52.560;13.508;2023-04-24T01:43:35;9.30;;;8.80;;
13733;SDS011;43298;52.560;13.508;2023-04-24T01:46:01;10.13;;;9.57;;
13733;SDS011;43298;52.560;13.508;2023-04-24T01:48:27;9.55;;;9.02;;
13733;SDS011;43298;52.560;13.508;2023-04-24T01:50:53;10.18;;;9.68;;
13733;SDS011;43298;52.560;13.508;2023-04-24T01:53:20;10.95;;;10.45;;
13733;SDS011;43298;52.560;13.508;2023-04-24T01:55:45;9.82;;;9.32;;
13733;SDS011;43298;52.560;13.508;2023-04-24T01:58:12;10.65;;;10.15;;
13733;SDS011;43298;52.560;13.508;2023-04-24T02:00:37;9.98;;;9.57;;
13733;SDS011;43298;52.560;13.508;2023-04-24T02:03:03;10.25;;;9.68;;
13733;SDS011;43298;52.560;13.508;2023-04-24T02:05:29;10.98;;;10.48;;
13733;SDS011;43298;52.560;13.508;2023-04-24T02:07:55;10.05;;;9.65;;
13733;SDS011;43298;52.560;13.508;2023-04-24T02:10:20;9.30;;;8.90;;
13733;SDS011;43298;52.560;13.508;2023-04-24T02:12:47;11.88;;;11.30;;
13733;SDS011;43298;52.560;13.508;2023-04-24T02:15:12;9.77;;;9.30;;
13733;SDS011;43298;52.560;13.508;2023-04-24T02:17:38;9.88;;;9.38;;
13733;SDS011;43298;52.560;13.508;2023-04-24T02:20:05;10.82;;;10.32;;
13733;SDS011;43298;52.560;13.508;2023-04-24T02:22:32;10.55;;;10.05;;
13733;SDS011;43298;52.560;13.508;2023-04-24T02:24:58;9.98;;;9.50;;
13733;SDS011;43298;52.560;13.508;2023-04-24T02:27:24;9.38;;;8.93;;
13733;SDS011;43298;52.560;13.508;2023-04-24T02:29:50;9.68;;;9.07;;
13733;SDS011;43298;52.560;13.508;2023-04-24T02:32:16;10.15;;;9.55;;
13733;SDS011;43298;52.560;13.508;2023-04-24T02:34:41;10.00;;;9.57;;
13733;SDS011;43298;52.560;13.508;2023-04-24T02:37:07;10.90;;;10.40;;
13733;SDS011;43298;52.560;13.508;2023-04-24T02:39:33;11.88;;;11.27;;
13733;SDS011;43298;52.560;13.508;2023-04-24T02:41:59;11.75;;;11.15;;
13733;SDS011;43298;52.560;13.508;2023-04-24T02:44:25;11.00;;;10.50;;
13733;SDS011;43298;52.560;13.508;2023-04-24T02:46:51;10.82;;;10.32;;
13733;SDS011;43298;52.560;13.508;2023-04-24T02:49:17;10.43;;;9.93;;
13733;SDS011;43298;52.560;13.508;2023-04-24T02:51:42;11.13;;;10.63;;
13733;SDS011;43298;52.560;13.508;2023-04-24T02:54:08;11.57;;;11.07;;
13733;SDS011;43298;52.560;13.508;2023-04-24T02:56:36;11.70;;;11.20;;
13733;SDS011;43298;52.560;13.508;2023-04-24T02:59:02;10.73;;;10.25;;
13733;SDS011;43298;52.560;13.508;2023-04-24T03:01:28;11.75;;;11.15;;
13733;SDS011;43298;52.560;13.508;2023-04-24T03:03:54;10.70;;;10.10;;
13733;SDS011;43298;52.560;13.508;2023-04-24T03:06:20;10.43;;;9.93;;
13733;SDS011;43298;52.560;13.508;2023-04-24T03:08:46;12.07;;;11.48;;
13733;SDS011;43298;52.560;13.508;2023-04-24T03:11:12;9.52;;;9.13;;
13733;SDS011;43298;52.560;13.508;2023-04-24T03:13:37;10.88;;;10.38;;
13733;SDS011;43298;52.560;13.508;2023-04-24T03:16:03;10.95;;;10.32;;
13733;SDS011;43298;52.560;13.508;2023-04-24T03:18:30;9.55;;;9.13;;
13733;SDS011;43298;52.560;13.508;2023-04-24T03:20:56;9.63;;;9.23;;
13733;SDS011;43298;52.560;13.508;2023-04-24T03:23:22;9.50;;;9.00;;
13733;SDS011;43298;52.560;13.508;2023-04-24T03:25:48;9.93;;;9.48;;
13733;SDS011;43298;52.560;13.508;2023-04-24T03:28:13;10.40;;;9.93;;
13733;SDS011;43298;52.560;13.508;2023-04-24T03:30:39;10.63;;;10.05;;
13733;SDS011;43298;52.560;13.508;2023-04-24T03:33:05;9.38;;;8.98;;
13733;SDS011;43298;52.560;13.508;2023-04-24T03:35:31;10.38;;;9.77;;
13733;SDS011;43298;52.560;13.508;2023-04-24T03:37:57;9.45;;;9.05;;
13733;SDS011;43298;52.560;13.508;2023-04-24T03:40:23;10.93;;;10.32;;
13733;SDS011;43298;52.560;13.508;2023-04-24T03:42:48;10.77;;;10.18;;
13733;SDS011;43298;52.560;13.508;2023-04-24T03:45:14;9.80;;;9.30;;
13733;SDS011;43298;52.560;13.508;2023-04-24T03:47:40;9.88;;;9.38;;
13733;SDS011;43298;52.560;13.508;2023-04-24T03:50:06;9.55;;;9.13;;
13733;SDS011;43298;52.560;13.508;2023-04-24T03:52:32;8.85;;;8.30;;
13733;SDS011;43298;52.560;13.508;2023-04-24T03:54:58;9.85;;;9.35;;
13733;SDS011;43298;52.560;13.508;2023-04-24T03:57:24;8.50;;;8.07;;
13733;SDS011;43298;52.560;13.508;2023-04-24T03:59:49;8.63;;;8.23;;
13733;SDS011;43298;52.560;13.508;2023-04-24T04:02:16;9.40;;;9.00;;
13733;SDS011;43298;52.560;13.508;2023-04-24T04:04:42;9.55;;;9.15;;
13733;SDS011;43298;52.560;13.508;2023-04-24T04:07:08;8.68;;;8.27;;
13733;SDS011;43298;52.560;13.508;2023-04-24T04:09:33;8.15;;;7.75;;
13733;SDS011;43298;52.560;13.508;2023-04-24T04:11:59;8.13;;;7.75;;
13733;SDS011;43298;52.560;13.508;2023-04-24T04:14:25;8.43;;;7.93;;
13733;SDS011;43298;52.560;13.508;2023-04-24T04:16:52;8.00;;;7.65;;
13733;SDS011;43298;52.560;13.508;2023-04-24T04:19:18;8.60;;;8.20;;
13733;SDS011;43298;52.560;13.508;2023-04-24T04:21:43;8.02;;;7.63;;
13733;SDS011;43298;52.560;13.508;2023-04-24T04:24:10;9.05;;;8.65;;
13733;SDS011;43298;52.560;13.508;2023-04-24T04:26:37;9.75;;;9.32;;
13733;SDS011;43298;52.560;13.508;2023-04-24T04:29:03;10.88;;;10.30;;
13733;SDS011;43298;52.560;13.508;2023-04-24T04:31:29;10.40;;;9.90;;
13733;SDS011;43298;52.560;13.508;2023-04-24T04:33:55;10.85;;;10.25;;
13733;SDS011;43298;52.560;13.508;2023-04-24T04:36:21;11.48;;;10.95;;
13733;SDS011;43298;52.560;13.508;2023-04-24T04:38:48;11.02;;;10.52;;
13733;SDS011;43298;52.560;13.508;2023-04-24T04:41:14;11.13;;;10.63;;
13733;SDS011;43298;52.560;13.508;2023-04-24T04:43:41;11.45;;;10.95;;
13733;SDS011;43298;52.560;13.508;2023-04-24T04:46:07;11.52;;;10.93;;
13733;SDS011;43298;52.560;13.508;2023-04-24T04:48:35;11.15;;;10.65;;
13733;SDS011;43298;52.560;13.508;2023-04-24T04:51:01;12.75;;;12.15;;
13733;SDS011;43298;52.560;13.508;2023-04-24T04:53:27;12.82;;;12.20;;
13733;SDS011;43298;52.560;13.508;2023-04-24T04:55:53;13.27;;;12.57;;
13733;SDS011;43298;52.560;13.508;2023-04-24T04:58:19;13.38;;;12.73;;
13733;SDS011;43298;52.560;13.508;2023-04-24T05:00:45;15.43;;;14.73;;
13733;SDS011;43298;52.560;13.508;2023-04-24T05:03:11;14.15;;;13.52;;
13733;SDS011;43298;52.560;13.508;2023-04-24T05:05:37;13.88;;;13.20;;
13733;SDS011;43298;52.560;13.508;2023-04-24T05:08:05;11.88;;;11.25;;
13733;SDS011;43298;52.560;13.508;2023-04-24T05:10:33;13.55;;;12.95;;
13733;SDS011;43298;52.560;13.508;2023-04-24T05:12:59;13.00;;;12.40;;
13733;SDS011;43298;52.560;13.508;2023-04-24T05:15:26;12.35;;;11.73;;
13733;SDS011;43298;52.560;13.508;2023-04-24T05:17:51;9.40;;;8.95;;
13733;SDS011;43298;52.560;13.508;2023-04-24T05:20:17;8.88;;;8.48;;
13733;SDS011;43298;52.560;13.508;2023-04-24T05:22:43;10.38;;;9.68;;
13733;SDS011;43298;52.560;13.508;2023-04-24T05:25:09;9.38;;;8.98;;
13733;SDS011;43298;52.560;13.508;2023-04-24T05:27:35;10.90;;;10.38;;
13733;SDS011;43298;52.560;13.508;2023-04-24T05:30:00;10.25;;;9.75;;
13733;SDS011;43298;52.560;13.508;2023-04-24T05:32:26;9.75;;;9.35;;
13733;SDS011;43298;52.560;13.508;2023-04-24T05:34:52;9.15;;;8.68;;
13733;SDS011;43298;52.560;13.508;2023-04-24T05:37:18;8.20;;;7.85;;
13733;SDS011;43298;52.560;13.508;2023-04-24T05:39:44;7.82;;;7.53;;
13733;SDS011;43298;52.560;13.508;2023-04-24T05:42:09;7.97;;;7.63;;
13733;SDS011;43298;52.560;13.508;2023-04-24T05:44:35;8.13;;;7.72;;
13733;SDS011;43298;52.560;13.508;2023-04-24T05:47:01;7.85;;;7.55;;
13733;SDS011;43298;52.560;13.508;2023-04-24T05:49:27;9.93;;;9.52;;
13733;SDS011;43298;52.560;13.508;2023-04-24T05:51:52;8.63;;;8.23;;
13733;SDS011;43298;52.560;13.508;2023-04-24T05:54:18;7.95;;;7.65;;
13733;SDS011;43298;52.560;13.508;2023-04-24T05:56:44;11.13;;;10.63;;
13733;SDS011;43298;52.560;13.508;2023-04-24T05:59:10;8.55;;;8.23;;
13733;SDS011;43298;52.560;13.508;2023-04-24T06:01:36;24.92;;;23.85;;
13733;SDS011;43298;52.560;13.508;2023-04-24T06:04:02;38.38;;;36.75;;
13733;SDS011;43298;52.560;13.508;2023-04-24T06:06:29;15.40;;;14.70;;
13733;SDS011;43298;52.560;13.508;2023-04-24T06:08:55;10.30;;;9.80;;
13733;SDS011;43298;52.560;13.508;2023-04-24T06:11:21;8.75;;;8.35;;
13733;SDS011;43298;52.560;13.508;2023-04-24T06:13:47;15.75;;;15.07;;
13733;SDS011;43298;52.560;13.508;2023-04-24T06:16:13;9.75;;;9.35;;
13733;SDS011;43298;52.560;13.508;2023-04-24T06:18:39;10.27;;;9.88;;
13733;SDS011;43298;52.560;13.508;2023-04-24T06:21:05;9.50;;;9.10;;
13733;SDS011;43298;52.560;13.508;2023-04-24T06:23:31;11.23;;;10.73;;
13733;SDS011;43298;52.560;13.508;2023-04-24T06:25:58;13.95;;;13.35;;
13733;SDS011;43298;52.560;13.508;2023-04-24T06:28:24;13.80;;;13.20;;
13733;SDS011;43298;52.560;13.508;2023-04-24T06:30:51;14.38;;;13.73;;
13733;SDS011;43298;52.560;13.508;2023-04-24T06:33:16;12.10;;;11.60;;
13733;SDS011;43298;52.560;13.508;2023-04-24T06:35:42;15.85;;;15.15;;
13733;SDS011;43298;52.560;13.508;2023-04-24T06:38:08;19.23;;;18.42;;
13733;SDS011;43298;52.560;13.508;2023-04-24T06:40:34;22.67;;;21.77;;
13733;SDS011;43298;52.560;13.508;2023-04-24T06:43:00;21.33;;;20.42;;
13733;SDS011;43298;52.560;13.508;2023-04-24T06:45:27;24.15;;;23.13;;
13733;SDS011;43298;52.560;13.508;2023-04-24T06:47:54;27.10;;;25.95;;
13733;SDS011;43298;52.560;13.508;2023-04-24T06:50:21;24.23;;;23.23;;
13733;SDS011;43298;52.560;13.508;2023-04-24T06:52:47;24.80;;;23.80;;
13733;SDS011;43298;52.560;13.508;2023-04-24T06:55:12;24.10;;;23.10;;
13733;SDS011;43298;52.560;13.508;2023-04-24T06:57:40;22.13;;;21.23;;
13733;SDS011;43298;52.560;13.508;2023-04-24T07:00:06;22.95;;;22.00;;
13733;SDS011;43298;52.560;13.508;2023-04-24T07:02:34;14.25;;;13.65;;
13733;SDS011;43298;52.560;13.508;2023-04-24T07:05:00;12.40;;;11.82;;
13733;SDS011;43298;52.560;13.508;2023-04-24T07:07:26;10.98;;;10.52;;
13733;SDS011;43298;52.560;13.508;2023-04-24T07:09:52;11.05;;;10.57;;
13733;SDS011;43298;52.560;13.508;2023-04-24T07:12:19;12.57;;;12.07;;
13733;SDS011;43298;52.560;13.508;2023-04-24T07:14:46;14.23;;;13.63;;
13733;SDS011;43298;52.560;13.508;2023-04-24T07:17:13;11.98;;;11.48;;
13733;SDS011;43298;52.560;13.508;2023-04-24T07:19:39;14.43;;;10.98;;
13733;SDS011;43298;52.560;13.508;2023-04-24T07:22:05;14.98;;;14.35;;
13733;SDS011;43298;52.560;13.508;2023-04-24T07:24:31;11.20;;;10.60;;
13733;SDS011;43298;52.560;13.508;2023-04-24T07:26:57;12.48;;;11.98;;
13733;SDS011;43298;52.560;13.508;2023-04-24T07:29:25;10.25;;;9.85;;
13733;SDS011;43298;52.560;13.508;2023-04-24T07:31:52;12.18;;;11.57;;
13733;SDS011;43298;52.560;13.508;2023-04-24T07:34:18;12.15;;;11.65;;
13733;SDS011;43298;52.560;13.508;2023-04-24T07:36:45;12.43;;;11.93;;
13733;SDS011;43298;52.560;13.508;2023-04-24T07:39:11;13.60;;;13.02;;
13733;SDS011;43298;52.560;13.508;2023-04-24T07:41:37;12.30;;;11.80;;
13733;SDS011;43298;52.560;13.508;2023-04-24T07:44:03;12.93;;;12.40;;
13733;SDS011;43298;52.560;13.508;2023-04-24T07:46:29;15.23;;;14.55;;
13733;SDS011;43298;52.560;13.508;2023-04-24T07:48:55;13.18;;;12.68;;
13733;SDS011;43298;52.560;13.508;2023-04-24T07:51:21;12.38;;;11.88;;
13733;SDS011;43298;52.560;13.508;2023-04-24T07:53:47;12.27;;;11.77;;
13733;SDS011;43298;52.560;13.508;2023-04-24T07:56:13;15.10;;;14.40;;
13733;SDS011;43298;52.560;13.508;2023-04-24T07:58:38;15.35;;;14.75;;
13733;SDS011;43298;52.560;13.508;2023-04-24T08:01:04;13.85;;;13.25;;
13733;SDS011;43298;52.560;13.508;2023-04-24T08:03:30;13.63;;;13.02;;
13733;SDS011;43298;52.560;13.508;2023-04-24T08:05:56;19.23;;;18.42;;
13733;SDS011;43298;52.560;13.508;2023-04-24T08:08:22;14.35;;;13.75;;
13733;SDS011;43298;52.560;13.508;2023-04-24T08:10:48;13.88;;;13.27;;
13733;SDS011;43298;52.560;13.508;2023-04-24T08:13:15;14.75;;;14.15;;
13733;SDS011;43298;52.560;13.508;2023-04-24T08:15:41;15.60;;;15.00;;
13733;SDS011;43298;52.560;13.508;2023-04-24T08:18:06;14.68;;;14.07;;
13733;SDS011;43298;52.560;13.508;2023-04-24T08:20:32;14.07;;;13.23;;
13733;SDS011;43298;52.560;13.508;2023-04-24T08:22:58;13.95;;;13.35;;
13733;SDS011;43298;52.560;13.508;2023-04-24T08:25:24;13.20;;;12.70;;
13733;SDS011;43298;52.560;13.508;2023-04-24T08:27:50;13.43;;;12.55;;
13733;SDS011;43298;52.560;13.508;2023-04-24T08:30:16;14.18;;;13.57;;
13733;SDS011;43298;52.560;13.508;2023-04-24T08:32:43;13.00;;;12.50;;
13733;SDS011;43298;52.560;13.508;2023-04-24T08:35:08;15.65;;;15.00;;
13733;SDS011;43298;52.560;13.508;2023-04-24T08:37:35;16.40;;;15.70;;
13733;SDS011;43298;52.560;13.508;2023-04-24T08:40:02;17.25;;;16.55;;
13733;SDS011;43298;52.560;13.508;2023-04-24T08:42:37;18.05;;;17.30;;
13733;SDS011;43298;52.560;13.508;2023-04-24T08:45:04;20.27;;;19.42;;
13733;SDS011;43298;52.560;13.508;2023-04-24T08:47:31;20.80;;;19.92;;
13733;SDS011;43298;52.560;13.508;2023-04-24T08:50:00;17.42;;;16.73;;
13733;SDS011;43298;52.560;13.508;2023-04-24T08:52:28;17.00;;;16.30;;
13733;SDS011;43298;52.560;13.508;2023-04-24T08:54:54;15.20;;;14.60;;
13733;SDS011;43298;52.560;13.508;2023-04-24T08:57:22;15.70;;;15.05;;
13733;SDS011;43298;52.560;13.508;2023-04-24T08:59:49;16.85;;;16.00;;
13733;SDS011;43298;52.560;13.508;2023-04-24T09:02:16;16.95;;;16.25;;
13733;SDS011;43298;52.560;13.508;2023-04-24T09:04:42;17.58;;;16.88;;
13733;SDS011;43298;52.560;13.508;2023-04-24T09:07:10;15.88;;;15.25;;
13733;SDS011;43298;52.560;13.508;2023-04-24T09:09:39;17.65;;;16.95;;
13733;SDS011;43298;52.560;13.508;2023-04-24T09:12:06;17.25;;;16.55;;
13733;SDS011;43298;52.560;13.508;2023-04-24T09:14:34;16.90;;;16.20;;
13733;SDS011;43298;52.560;13.508;2023-04-24T09:17:01;19.05;;;18.05;;
13733;SDS011;43298;52.560;13.508;2023-04-24T09:19:27;18.15;;;17.38;;
13733;SDS011;43298;52.560;13.508;2023-04-24T09:21:53;16.65;;;15.95;;
13733;SDS011;43298;52.560;13.508;2023-04-24T09:24:20;15.38;;;14.77;;
13733;SDS011;43298;52.560;13.508;2023-04-24T09:26:58;17.23;;;16.52;;
13733;SDS011;43298;52.560;13.508;2023-04-24T09:29:26;19.23;;;18.42;;
13733;SDS011;43298;52.560;13.508;2023-04-24T09:31:53;20.10;;;19.30;;
13733;SDS011;43298;52.560;13.508;2023-04-24T09:34:22;20.25;;;19.42;;
13733;SDS011;43298;52.560;13.508;2023-04-24T09:36:51;18.90;;;18.10;;
13733;SDS011;43298;52.560;13.508;2023-04-24T09:39:17;17.90;;;17.20;;
13733;SDS011;43298;52.560;13.508;2023-04-24T09:41:51;17.02;;;16.33;;
13733;SDS011;43298;52.560;13.508;2023-04-24T09:44:25;16.30;;;15.60;;
13733;SDS011;43298;52.560;13.508;2023-04-24T09:46:54;16.70;;;16.00;;
13733;SDS011;43298;52.560;13.508;2023-04-24T09:49:23;14.90;;;14.30;;
13733;SDS011;43298;52.560;13.508;2023-04-24T09:51:50;16.98;;;16.27;;
13733;SDS011;43298;52.560;13.508;2023-04-24T09:54:20;15.65;;;15.00;;
13733;SDS011;43298;52.560;13.508;2023-04-24T09:56:47;16.08;;;15.40;;
13733;SDS011;43298;52.560;13.508;2023-04-24T09:59:17;15.40;;;14.80;;
13733;SDS011;43298;52.560;13.508;2023-04-24T10:01:44;14.40;;;13.80;;
13733;SDS011;43298;52.560;13.508;2023-04-24T10:07:06;13.10;;;12.60;;
13733;SDS011;43298;52.560;13.508;2023-04-24T10:09:34;14.70;;;14.10;;
13733;SDS011;43298;52.560;13.508;2023-04-24T10:12:00;16.05;;;15.38;;
13733;SDS011;43298;52.560;13.508;2023-04-24T10:14:27;17.65;;;16.95;;
13733;SDS011;43298;52.560;13.508;2023-04-24T10:16:54;15.30;;;14.68;;
13733;SDS011;43298;52.560;13.508;2023-04-24T10:19:22;15.63;;;15.00;;
13733;SDS011;43298;52.560;13.508;2023-04-24T10:21:51;19.00;;;18.23;;
13733;SDS011;43298;52.560;13.508;2023-04-24T10:24:19;23.25;;;22.27;;
13733;SDS011;43298;52.560;13.508;2023-04-24T10:26:48;25.08;;;24.02;;
13733;SDS011;43298;52.560;13.508;2023-04-24T10:29:15;25.10;;;24.08;;
13733;SDS011;43298;52.560;13.508;2023-04-24T10:31:43;26.77;;;25.65;;
13733;SDS011;43298;52.560;13.508;2023-04-24T10:34:13;31.15;;;29.85;;
13733;SDS011;43298;52.560;13.508;2023-04-24T10:36:43;26.48;;;25.38;;
13733;SDS011;43298;52.560;13.508;2023-04-24T10:39:15;31.45;;;30.13;;
13733;SDS011;43298;52.560;13.508;2023-04-24T10:41:43;36.08;;;34.55;;
13733;SDS011;43298;52.560;13.508;2023-04-24T10:44:12;35.65;;;34.15;;
13733;SDS011;43298;52.560;13.508;2023-04-24T10:46:45;34.75;;;33.30;;
13733;SDS011;43298;52.560;13.508;2023-04-24T10:49:17;23.27;;;22.33;;
13733;SDS011;43298;52.560;13.508;2023-04-24T10:52:01;18.15;;;17.42;;
13733;SDS011;43298;52.560;13.508;2023-04-24T10:59:44;14.02;;;13.43;;
13733;SDS011;43298;52.560;13.508;2023-04-24T11:02:15;16.33;;;15.52;;
13733;SDS011;43298;52.560;13.508;2023-04-24T11:04:42;17.85;;;17.10;;
13733;SDS011;43298;52.560;13.508;2023-04-24T11:07:10;19.23;;;18.42;;
13733;SDS011;43298;52.560;13.508;2023-04-24T11:09:36;20.45;;;19.55;;
13733;SDS011;43298;52.560;13.508;2023-04-24T11:12:09;16.70;;;16.00;;
13733;SDS011;43298;52.560;13.508;2023-04-24T11:17:35;12.10;;;11.60;;
13733;SDS011;43298;52.560;13.508;2023-04-24T11:20:08;11.75;;;11.05;;
13733;SDS011;43298;52.560;13.508;2023-04-24T11:22:42;11.85;;;11.35;;
13733;SDS011;43298;52.560;13.508;2023-04-24T11:25:08;13.65;;;13.07;;
13733;SDS011;43298;52.560;13.508;2023-04-24T11:27:43;15.57;;;14.98;;
13733;SDS011;43298;52.560;13.508;2023-04-24T11:30:16;22.45;;;21.52;;
13733;SDS011;43298;52.560;13.508;2023-04-24T11:32:47;23.05;;;22.13;;
13733;SDS011;43298;52.560;13.508;2023-04-24T11:35:16;21.38;;;20.48;;
13733;SDS011;43298;52.560;13.508;2023-04-24T11:37:44;17.73;;;16.95;;
13733;SDS011;43298;52.560;13.508;2023-04-24T11:40:14;15.30;;;14.70;;
13733;SDS011;43298;52.560;13.508;2023-04-24T11:42:43;17.35;;;16.65;;
13733;SDS011;43298;52.560;13.508;2023-04-24T11:45:11;16.75;;;16.05;;
13733;SDS011;43298;52.560;13.508;2023-04-24T11:47:46;17.88;;;17.13;;
13733;SDS011;43298;52.560;13.508;2023-04-24T11:50:13;19.70;;;18.00;;
13733;SDS011;43298;52.560;13.508;2023-04-24T11:52:42;15.95;;;15.30;;
13733;SDS011;43298;52.560;13.508;2023-04-24T11:57:43;16.90;;;16.13;;
13733;SDS011;43298;52.560;13.508;2023-04-24T12:02:45;16.83;;;16.13;;
13733;SDS011;43298;52.560;13.508;2023-04-24T12:05:27;21.10;;;20.20;;
13733;SDS011;43298;52.560;13.508;2023-04-24T12:07:56;17.88;;;17.10;;
13733;SDS011;43298;52.560;13.508;2023-04-24T12:10:25;16.90;;;16.20;;
13733;SDS011;43298;52.560;13.508;2023-04-24T12:12:53;15.38;;;14.77;;
13733;SDS011;43298;52.560;13.508;2023-04-24T12:15:22;16.17;;;15.48;;
13733;SDS011;43298;52.560;13.508;2023-04-24T12:17:50;17.17;;;16.48;;
13733;SDS011;43298;52.560;13.508;2023-04-24T12:20:23;18.33;;;17.52;;
13733;SDS011;43298;52.560;13.508;2023-04-24T12:22:54;14.20;;;13.60;;
13733;SDS011;43298;52.560;13.508;2023-04-24T12:25:23;14.15;;;13.55;;
13733;SDS011;43298;52.560;13.508;2023-04-24T12:30:31;21.60;;;20.70;;
13733;SDS011;43298;52.560;13.508;2023-04-24T12:33:19;21.33;;;20.42;;
13733;SDS011;43298;52.560;13.508;2023-04-24T12:35:47;31.52;;;30.13;;
13733;SDS011;43298;52.560;13.508;2023-04-24T12:38:21;34.10;;;32.67;;
13733;SDS011;43298;52.560;13.508;2023-04-24T12:41:04;28.20;;;27.00;;
13733;SDS011;43298;52.560;13.508;2023-04-24T12:43:35;19.63;;;18.83;;
13733;SDS011;43298;52.560;13.508;2023-04-24T12:46:01;17.17;;;16.48;;
13733;SDS011;43298;52.560;13.508;2023-04-24T12:48:30;15.68;;;15.00;;
13733;SDS011;43298;52.560;13.508;2023-04-24T12:50:57;16.75;;;16.05;;
13733;SDS011;43298;52.560;13.508;2023-04-24T12:53:26;15.45;;;14.85;;
13733;SDS011;43298;52.560;13.508;2023-04-24T12:55:54;15.13;;;14.52;;
13733;SDS011;43298;52.560;13.508;2023-04-24T12:58:21;14.77;;;14.18;;
13733;SDS011;43298;52.560;13.508;2023-04-24T13:00:47;15.40;;;14.60;;
13733;SDS011;43298;52.560;13.508;2023-04-24T13:03:13;14.18;;;13.57;;
13733;SDS011;43298;52.560;13.508;2023-04-24T13:05:40;13.20;;;12.70;;
13733;SDS011;43298;52.560;13.508;2023-04-24T13:08:07;15.10;;;14.45;;
13733;SDS011;43298;52.560;13.508;2023-04-24T13:10:33;13.95;;;13.35;;
13733;SDS011;43298;52.560;13.508;2023-04-24T13:12:59;14.98;;;14.38;;
13733;SDS011;43298;52.560;13.508;2023-04-24T13:15:25;16.17;;;15.48;;
13733;SDS011;43298;52.560;13.508;2023-04-24T13:17:51;17.08;;;16.38;;
13733;SDS011;43298;52.560;13.508;2023-04-24T13:20:17;15.50;;;14.88;;
13733;SDS011;43298;52.560;13.508;2023-04-24T13:22:43;14.88;;;14.27;;
13733;SDS011;43298;52.560;13.508;2023-04-24T13:25:09;15.07;;;14.48;;
13733;SDS011;43298;52.560;13.508;2023-04-24T13:27:35;16.60;;;15.90;;
13733;SDS011;43298;52.560;13.508;2023-04-24T13:30:03;16.35;;;15.65;;
13733;SDS011;43298;52.560;13.508;2023-04-24T13:32:30;17.10;;;16.40;;
13733;SDS011;43298;52.560;13.508;2023-04-24T13:34:58;17.05;;;16.30;;
13733;SDS011;43298;52.560;13.508;2023-04-24T13:37:24;16.73;;;16.02;;
13733;SDS011;43298;52.560;13.508;2023-04-24T13:39:50;15.07;;;14.38;;
13733;SDS011;43298;52.560;13.508;2023-04-24T13:42:16;14.75;;;14.15;;
13733;SDS011;43298;52.560;13.508;2023-04-24T13:44:42;13.90;;;13.30;;
13733;SDS011;43298;52.560;13.508;2023-04-24T13:47:07;14.90;;;14.30;;
13733;SDS011;43298;52.560;13.508;2023-04-24T13:49:33;13.98;;;13.38;;
13733;SDS011;43298;52.560;13.508;2023-04-24T13:52:00;14.90;;;14.30;;
13733;SDS011;43298;52.560;13.508;2023-04-24T13:54:26;13.88;;;13.27;;
13733;SDS011;43298;52.560;13.508;2023-04-24T13:56:52;14.00;;;13.40;;
13733;SDS011;43298;52.560;13.508;2023-04-24T13:59:19;14.27;;;13.68;;
13733;SDS011;43298;52.560;13.508;2023-04-24T14:01:46;12.10;;;11.60;;
13733;SDS011;43298;52.560;13.508;2023-04-24T14:04:12;12.95;;;12.45;;
13733;SDS011;43298;52.560;13.508;2023-04-24T14:06:38;15.20;;;14.60;;
13733;SDS011;43298;52.560;13.508;2023-04-24T14:09:04;13.55;;;12.95;;
13733;SDS011;43298;52.560;13.508;2023-04-24T14:11:31;14.07;;;13.48;;
13733;SDS011;43298;52.560;13.508;2023-04-24T14:13:56;14.50;;;13.90;;
13733;SDS011;43298;52.560;13.508;2023-04-24T14:16:22;13.65;;;13.07;;
13733;SDS011;43298;52.560;13.508;2023-04-24T14:18:48;13.23;;;12.68;;
13733;SDS011;43298;52.560;13.508;2023-04-24T14:21:14;13.73;;;13.13;;
13733;SDS011;43298;52.560;13.508;2023-04-24T14:23:41;13.98;;;13.38;;
13733;SDS011;43298;52.560;13.508;2023-04-24T14:26:06;12.95;;;12.45;;
13733;SDS011;43298;52.560;13.508;2023-04-24T14:28:32;14.75;;;14.15;;
13733;SDS011;43298;52.560;13.508;2023-04-24T14:30:58;13.25;;;12.65;;
13733;SDS011;43298;52.560;13.508;2023-04-24T14:33:24;13.93;;;13.32;;